Time;durP1;ratioP1;P1;durP2;ratioP2;P2;SDS_P1;SDS_P2;PMS_P1;PMS_P2;Temp;Humidity;BMP_temperature;BMP_pressure;BME280_temperature;BME280_humidity;BME280_pressure;Samples;Min_cycle;Max_cycle;Signal;HPM_P1;HPM_P2
2023/06/27 00:01:13;;;;;;;13.00;3.05;;;;;;;17.55;100.00;101901.34;5052072;28;20032;-51
2023/06/27 00:03:38;;;;;;;12.85;4.22;;;;;;;17.68;100.00;101920.31;5034250;28;20035;-49
2023/06/27 00:06:04;;;;;;;13.05;3.70;;;;;;;17.60;100.00;101901.16;5050637;28;20048;-53
2023/06/27 00:08:33;;;;;;;12.93;3.63;;;;;;;17.37;100.00;101871.03;5051684;28;20048;-50
2023/06/27 00:10:59;;;;;;;10.77;3.65;;;;;;;17.67;100.00;101915.91;5051532;28;20041;-56
2023/06/27 00:13:24;;;;;;;12.85;3.33;;;;;;;17.63;100.00;101920.50;5051959;28;20118;-52
2023/06/27 00:15:52;;;;;;;14.73;4.40;;;;;;;17.60;100.00;101920.63;5052319;28;20037;-55
2023/06/27 00:18:21;;;;;;;15.52;4.07;;;;;;;17.56;100.00;101913.72;5035160;28;20025;-52
2023/06/27 00:20:48;;;;;;;12.18;4.03;;;;;;;17.51;100.00;101910.38;5035221;28;20041;-51
2023/06/27 00:23:22;;;;;;;13.60;3.85;;;;;;;17.37;100.00;101910.97;5052162;28;20033;-51
2023/06/27 00:25:48;;;;;;;11.55;3.97;;;;;;;17.39;100.00;101913.56;5051183;28;20061;-51
2023/06/27 00:28:13;;;;;;;14.35;4.45;;;;;;;16.88;100.00;101835.06;5051783;28;20118;-53
2023/06/27 00:30:38;;;;;;;15.75;4.53;;;;;;;16.87;100.00;101836.00;5050722;28;20064;-50
2023/06/27 00:33:04;;;;;;;13.98;4.00;;;;;;;17.32;100.00;101920.97;5050405;28;20473;-48
2023/06/27 00:35:32;;;;;;;15.63;4.60;;;;;;;16.99;100.00;101866.50;5017392;28;20205;-51
2023/06/27 00:38:02;;;;;;;11.70;3.72;;;;;;;16.91;100.00;101847.38;5051958;28;20025;-49
2023/06/27 00:40:27;;;;;;;9.10;3.22;;;;;;;17.30;100.00;101916.63;5034141;28;20078;-51
2023/06/27 00:42:53;;;;;;;14.10;3.95;;;;;;;16.90;100.00;101853.59;5045092;28;20053;-55
2023/06/27 00:45:20;;;;;;;11.18;3.80;;;;;;;16.79;100.00;101835.47;5050434;28;20033;-51
2023/06/27 00:47:45;;;;;;;9.43;3.88;;;;;;;16.79;100.00;101829.28;5051625;28;20400;-56
2023/06/27 00:50:10;;;;;;;10.73;3.65;;;;;;;17.25;100.00;101919.47;5051514;28;20045;-48
2023/06/27 00:52:38;;;;;;;12.88;4.03;;;;;;;16.98;100.00;101864.81;5050771;28;20457;-49
2023/06/27 00:55:04;;;;;;;12.23;3.45;;;;;;;17.24;100.00;101912.44;5049992;28;20496;-50
2023/06/27 00:57:30;;;;;;;14.68;3.60;;;;;;;16.80;100.00;101833.66;5050991;28;20049;-50
2023/06/27 00:59:56;;;;;;;11.45;3.40;;;;;;;17.19;100.00;101902.94;5033750;28;20035;-49
2023/06/27 01:02:23;;;;;;;11.45;3.85;;;;;;;16.73;100.00;101826.88;5033824;28;20120;-54
2023/06/27 01:04:50;;;;;;;15.73;3.83;;;;;;;17.10;100.00;101911.31;5051374;28;20036;-53
2023/06/27 01:07:22;;;;;;;13.38;3.80;;;;;;;17.07;100.00;101914.09;5051173;28;20036;-50
2023/06/27 01:09:51;;;;;;;10.43;3.80;;;;;;;17.03;100.00;101904.50;5051454;28;20064;-50
2023/06/27 01:12:24;;;;;;;15.27;4.47;;;;;;;16.66;100.00;101842.25;5051516;28;20086;-47
2023/06/27 01:14:50;;;;;;;18.08;4.07;;;;;;;17.04;100.00;101899.13;5046556;28;20040;-55
2023/06/27 01:17:16;;;;;;;16.50;3.97;;;;;;;17.03;100.00;101900.03;5053116;28;20032;-52
2023/06/27 01:19:44;;;;;;;10.45;4.15;;;;;;;16.98;100.00;101891.41;5072227;28;20029;-56
2023/06/27 01:22:13;;;;;;;18.42;4.00;;;;;;;16.84;100.00;101861.88;5056602;28;20181;-51
2023/06/27 01:24:39;;;;;;;13.57;3.33;;;;;;;16.67;100.00;101832.44;5055768;28;20112;-49
2023/06/27 01:27:04;;;;;;;12.43;4.97;;;;;;;17.05;100.00;101898.19;5073694;28;20064;-50
2023/06/27 01:29:30;;;;;;;13.55;3.83;;;;;;;17.07;100.00;101906.13;5051847;28;20041;-54
2023/06/27 01:32:04;;;;;;;13.48;4.03;;;;;;;16.93;100.00;101884.56;5053848;28;20059;-50
2023/06/27 01:35:34;;;;;;;11.80;4.40;;;;;;;17.05;100.00;101903.50;5054280;28;20037;-50
2023/06/27 01:38:03;;;;;;;13.27;3.80;;;;;;;17.02;100.00;101900.97;4971155;28;20086;-49
2023/06/27 01:40:33;;;;;;;17.17;4.50;;;;;;;16.91;100.00;101879.28;4973521;28;20035;-49
2023/06/27 01:43:02;;;;;;;13.52;3.78;;;;;;;17.00;100.00;101894.84;4991159;28;20041;-55
2023/06/27 01:45:28;;;;;;;14.18;3.30;;;;;;;16.69;100.00;101835.91;5052510;28;20033;-48
2023/06/27 01:47:54;;;;;;;8.88;3.50;;;;;;;17.09;100.00;101904.25;5053179;28;20036;-53
2023/06/27 01:50:20;;;;;;;15.88;3.92;;;;;;;16.99;100.00;101886.97;5036511;28;20048;-53
2023/06/27 01:52:45;;;;;;;12.50;3.65;;;;;;;17.06;100.00;101901.72;5054415;28;20041;-49
2023/06/27 01:55:10;;;;;;;9.15;3.72;;;;;;;16.98;100.00;101878.09;5054283;28;20563;-53
2023/06/27 01:57:36;;;;;;;13.00;3.80;;;;;;;17.08;100.00;101902.50;5053917;28;20447;-49
2023/06/27 02:00:02;;;;;;;12.85;4.32;;;;;;;17.11;100.00;101897.03;5052696;28;20475;-53
2023/06/27 02:02:28;;;;;;;12.32;3.40;;;;;;;17.03;100.00;101880.56;5053424;28;20419;-52
2023/06/27 02:04:53;;;;;;;14.10;3.53;;;;;;;16.74;100.00;101833.94;5054029;28;20120;-55
2023/06/27 02:07:18;;;;;;;10.93;3.67;;;;;;;16.80;100.00;101839.00;5053996;28;20072;-52
2023/06/27 02:09:44;;;;;;;9.73;3.70;;;;;;;17.21;100.00;101899.28;5054232;28;20072;-54
2023/06/27 02:12:11;;;;;;;12.02;4.05;;;;;;;17.23;100.00;101902.72;5053581;28;20032;-52
2023/06/27 02:14:37;;;;;;;16.65;3.97;;;;;;;16.80;100.00;101820.38;5053642;28;20449;-51
2023/06/27 02:17:03;;;;;;;13.25;3.92;;;;;;;17.18;100.00;101886.09;5053867;28;20116;-49
2023/06/27 02:19:28;;;;;;;10.13;3.53;;;;;;;17.13;100.00;101863.28;5052884;28;20033;-50
2023/06/27 02:21:53;;;;;;;14.70;4.97;;;;;;;17.20;100.00;101875.38;5053629;28;20487;-52
2023/06/27 02:24:19;;;;;;;12.88;3.50;;;;;;;16.42;100.00;101742.22;5054087;28;20040;-50
2023/06/27 02:26:44;;;;;;;11.77;3.88;;;;;;;17.07;100.00;101856.44;5035822;28;20041;-50
2023/06/27 02:29:11;;;;;;;13.38;3.58;;;;;;;17.10;100.00;101872.25;5036211;28;20075;-53
2023/06/27 02:31:37;;;;;;;14.63;3.65;;;;;;;16.87;100.00;101843.97;5053317;28;20435;-52
2023/06/27 02:34:02;;;;;;;16.17;4.50;;;;;;;16.98;100.00;101872.78;5053352;28;20033;-49
2023/06/27 02:36:28;;;;;;;13.95;3.95;;;;;;;16.83;100.00;101854.81;5035637;28;20037;-51
2023/06/27 02:38:56;;;;;;;15.05;4.22;;;;;;;16.89;100.00;101875.84;5034757;28;20080;-52
2023/06/27 02:41:22;;;;;;;14.63;4.53;;;;;;;16.54;100.00;101833.91;5035436;28;20137;-53
2023/06/27 02:43:48;;;;;;;12.27;4.28;;;;;;;16.56;100.00;101838.22;5035515;28;20178;-49
2023/06/27 02:46:13;;;;;;;16.13;4.43;;;;;;;16.26;100.00;101796.91;5035450;28;20532;-49
2023/06/27 02:48:39;;;;;;;11.05;4.38;;;;;;;16.70;100.00;101888.16;5053112;28;20112;-48
2023/06/27 02:51:04;;;;;;;14.90;4.40;;;;;;;16.20;100.00;101810.44;5053088;28;20041;-52
2023/06/27 02:53:29;;;;;;;12.85;4.80;;;;;;;16.60;100.00;101884.16;5052737;28;20159;-55
2023/06/27 02:55:57;;;;;;;13.55;4.07;;;;;;;16.55;100.00;101889.63;5052926;28;20491;-50
2023/06/27 02:58:23;;;;;;;17.27;5.13;;;;;;;16.50;100.00;101883.63;5052835;28;20159;-51
2023/06/27 03:00:48;;;;;;;18.35;4.97;;;;;;;16.51;100.00;101889.81;5053244;28;20115;-50
2023/06/27 03:03:13;;;;;;;12.00;4.45;;;;;;;16.49;100.00;101879.22;5053054;28;20119;-52
2023/06/27 03:05:39;;;;;;;14.70;5.30;;;;;;;16.06;100.00;101810.13;5053088;28;20068;-49
2023/06/27 03:08:04;;;;;;;14.95;5.35;;;;;;;16.39;100.00;101874.34;5052984;28;20033;-54
2023/06/27 03:10:29;;;;;;;12.07;4.78;;;;;;;16.40;100.00;101890.25;5052554;28;20033;-48
2023/06/27 03:12:55;;;;;;;10.98;4.35;;;;;;;16.03;100.00;101829.72;5052826;28;20040;-52
2023/06/27 03:15:20;;;;;;;15.93;4.90;;;;;;;16.41;100.00;101888.41;5052861;28;20491;-51
2023/06/27 03:17:45;;;;;;;11.10;4.43;;;;;;;15.96;100.00;101812.31;5053070;28;20518;-51
2023/06/27 03:20:11;;;;;;;15.60;4.88;;;;;;;16.38;100.00;101893.84;5052398;28;20067;-50
2023/06/27 03:22:36;;;;;;;13.15;4.65;;;;;;;15.90;100.00;101824.94;5052649;28;20120;-49
2023/06/27 03:25:02;;;;;;;13.27;4.85;;;;;;;16.25;100.00;101889.06;5052528;28;20040;-53
2023/06/27 03:27:27;;;;;;;10.45;4.28;;;;;;;16.17;100.00;101880.50;5051954;28;20041;-52
2023/06/27 03:29:53;;;;;;;10.35;4.22;;;;;;;16.18;100.00;101884.03;5052712;28;20492;-55
2023/06/27 03:32:18;;;;;;;9.73;4.45;;;;;;;16.18;100.00;101895.53;5052425;28;20029;-52
2023/06/27 03:34:44;;;;;;;13.05;3.90;;;;;;;16.14;100.00;101890.41;5052365;28;20119;-51
2023/06/27 03:37:09;;;;;;;10.02;4.15;;;;;;;15.71;100.00;101820.34;5052605;28;20039;-50
2023/06/27 03:39:34;;;;;;;11.13;4.20;;;;;;;15.66;100.00;101821.44;5052293;28;20033;-49
2023/06/27 03:42:00;;;;;;;10.00;4.10;;;;;;;15.68;100.00;101822.22;5051553;28;20442;-50
2023/06/27 03:44:25;;;;;;;14.25;4.57;;;;;;;15.69;100.00;101816.88;5033911;28;20524;-53
2023/06/27 03:46:51;;;;;;;11.55;4.85;;;;;;;16.04;100.00;101884.56;5052401;28;20055;-51
2023/06/27 03:49:16;;;;;;;10.82;4.72;;;;;;;16.03;100.00;101888.13;5052043;28;20033;-49
2023/06/27 03:51:42;;;;;;;11.80;5.05;;;;;;;15.97;100.00;101876.88;5034357;28;20044;-57
2023/06/27 03:54:07;;;;;;;10.93;4.57;;;;;;;15.61;100.00;101826.94;5052376;28;20025;-52
2023/06/27 03:56:33;;;;;;;12.23;4.18;;;;;;;15.58;100.00;101826.19;5052310;28;20064;-49
2023/06/27 03:58:58;;;;;;;11.98;4.18;;;;;;;15.79;100.00;101870.47;5051775;28;20053;-50
2023/06/27 04:01:24;;;;;;;16.90;4.43;;;;;;;15.55;100.00;101831.59;5051422;28;20052;-57
2023/06/27 04:03:49;;;;;;;12.23;3.88;;;;;;;15.48;100.00;101824.78;5051977;28;20055;-53
2023/06/27 04:06:15;;;;;;;9.00;3.40;;;;;;;15.55;100.00;101844.88;5052215;28;20036;-54
2023/06/27 04:08:40;;;;;;;10.60;4.07;;;;;;;15.54;100.00;101836.03;5052231;28;20395;-50
2023/06/27 04:11:05;;;;;;;13.60;3.88;;;;;;;15.51;100.00;101827.31;5034162;28;20324;-52
2023/06/27 04:13:30;;;;;;;15.13;4.22;;;;;;;15.97;100.00;101904.31;5034218;28;20714;-48
2023/06/27 04:15:56;;;;;;;13.23;4.05;;;;;;;15.97;100.00;101906.94;5051436;28;20037;-53
2023/06/27 04:18:22;;;;;;;13.38;4.43;;;;;;;15.57;100.00;101829.75;5051738;28;20068;-50
2023/06/27 04:20:47;;;;;;;13.40;3.75;;;;;;;15.54;100.00;101833.38;5051843;28;20041;-50
2023/06/27 04:23:13;;;;;;;12.63;4.32;;;;;;;15.94;100.00;101906.19;5051834;28;20029;-51
2023/06/27 04:25:43;;;;;;;8.68;4.03;;;;;;;15.81;100.00;101899.63;5051821;28;20554;-54
2023/06/27 04:28:08;;;;;;;11.77;4.15;;;;;;;15.73;100.00;101895.47;5034061;28;20108;-50
2023/06/27 04:30:34;;;;;;;12.65;4.53;;;;;;;15.49;100.00;101845.97;5051614;28;20168;-49
2023/06/27 04:33:00;;;;;;;11.40;4.68;;;;;;;15.90;100.00;101909.91;5051222;28;20041;-50
2023/06/27 04:35:26;;;;;;;8.68;4.40;;;;;;;15.86;100.00;101908.28;5034152;28;20400;-51
2023/06/27 04:37:51;;;;;;;15.20;4.22;;;;;;;15.84;100.00;101907.47;5051798;28;20124;-49
2023/06/27 04:40:17;;;;;;;12.50;4.25;;;;;;;15.75;100.00;101906.91;5051621;28;20041;-48
2023/06/27 04:42:42;;;;;;;10.80;4.25;;;;;;;15.65;100.00;101886.91;5051647;28;20071;-51
2023/06/27 04:45:08;;;;;;;10.63;3.95;;;;;;;15.35;100.00;101839.38;5051332;28;20058;-50
2023/06/27 04:47:36;;;;;;;14.05;4.35;;;;;;;15.41;100.00;101853.28;5051470;28;20065;-49
2023/06/27 04:50:02;;;;;;;12.63;4.38;;;;;;;15.82;100.00;101910.19;5033816;28;20442;-49
2023/06/27 04:52:27;;;;;;;14.73;5.03;;;;;;;15.42;100.00;101840.88;5051572;28;20519;-52
2023/06/27 04:54:53;;;;;;;10.98;4.97;;;;;;;15.89;100.00;101916.13;5034751;28;20041;-51
2023/06/27 04:57:18;;;;;;;13.13;4.55;;;;;;;15.90;100.00;101918.75;5055495;28;20045;-56
2023/06/27 04:59:44;;;;;;;12.57;4.70;;;;;;;15.80;100.00;101892.56;5055238;28;20033;-54
2023/06/27 05:02:09;;;;;;;16.60;4.30;;;;;;;15.58;100.00;101853.59;5054617;28;20063;-52
2023/06/27 05:04:35;;;;;;;8.93;3.88;;;;;;;15.61;100.00;101849.94;5037469;28;20231;-52
2023/06/27 05:07:00;;;;;;;13.20;3.90;;;;;;;16.11;100.00;101923.22;5055090;28;20033;-56
2023/06/27 05:09:26;;;;;;;10.50;4.25;;;;;;;16.04;100.00;101879.25;5055729;28;20072;-53
2023/06/27 05:11:51;;;;;;;10.10;3.63;;;;;;;16.24;100.00;101920.97;5037283;28;20082;-55
2023/06/27 05:14:16;;;;;;;9.68;3.60;;;;;;;16.30;100.00;101910.13;5055049;28;20048;-51
2023/06/27 05:16:42;;;;;;;12.00;3.50;;;;;;;16.11;100.00;101872.75;5054892;28;20029;-53
2023/06/27 05:19:07;;;;;;;7.88;3.20;;;;;;;16.48;100.00;101922.69;5054566;28;20056;-51
2023/06/27 05:21:32;;;;;;;6.78;3.03;;;;;;;16.23;100.00;101864.31;5036954;28;20037;-51
2023/06/27 05:23:58;;;;;;;9.55;2.90;;;;;;;16.32;100.00;101855.97;5057142;28;20085;-50
2023/06/27 05:26:24;;;;;;;4.22;2.17;;;;;;;16.83;100.00;101931.94;5056249;28;20048;-52
2023/06/27 05:28:49;;;;;;;5.30;2.25;;;;;;;16.50;100.00;101867.66;5063221;28;20036;-49
2023/06/27 05:31:15;;;;;;;8.27;3.10;;;;;;;16.70;100.00;101873.06;5061586;28;20399;-52
2023/06/27 05:33:40;;;;;;;5.22;2.10;;;;;;;17.24;100.00;101932.84;5054999;28;20124;-55
2023/06/27 05:36:05;;;;;;;4.50;1.85;;;;;;;17.39;100.00;101951.72;5054445;28;20044;-54
2023/06/27 05:38:31;;;;;;;6.45;2.33;;;;;;;17.11;100.00;101867.78;5054627;28;20144;-51
2023/06/27 05:40:56;;;;;;;5.15;1.98;;;;;;;17.71;100.00;101957.44;5036515;28;20460;-49
2023/06/27 05:43:22;;;;;;;9.77;2.38;;;;;;;17.76;100.00;101942.13;5054443;28;20373;-48
2023/06/27 05:45:47;;;;;;;9.63;2.15;;;;;;;17.97;100.00;101946.50;5036015;28;21997;-49
2023/06/27 05:48:12;;;;;;;3.33;1.67;;;;;;;17.69;100.00;101876.75;5054328;28;20036;-50
2023/06/27 05:50:39;;;;;;;4.45;1.90;;;;;;;17.98;100.00;101917.09;5054139;28;20037;-50
2023/06/27 05:53:04;;;;;;;3.22;1.80;;;;;;;18.23;100.00;101934.63;5053198;28;20065;-49
2023/06/27 05:55:30;;;;;;;3.53;1.60;;;;;;;17.94;100.00;101864.91;5054069;28;20056;-52
2023/06/27 05:57:55;;;;;;;5.97;2.42;;;;;;;18.16;100.00;101890.53;5036389;28;20049;-51
2023/06/27 06:00:21;;;;;;;4.22;1.88;;;;;;;18.51;100.00;101954.59;5035780;28;20036;-54
2023/06/27 06:02:47;;;;;;;3.72;1.55;;;;;;;18.31;100.00;101917.34;5053918;28;20051;-50
2023/06/27 06:05:14;;;;;;;1.98;1.33;;;;;;;18.23;100.00;101897.31;5035813;28;20029;-55
2023/06/27 06:07:43;;;;;;;6.25;2.08;;;;;;;18.66;100.00;101968.13;5051686;28;20243;-51
2023/06/27 06:10:10;;;;;;;7.85;2.13;;;;;;;18.73;100.00;101972.25;5053897;28;20033;-51
2023/06/27 06:12:36;;;;;;;3.63;1.30;;;;;;;18.79;100.00;101975.50;5035841;28;20060;-49
2023/06/27 06:15:01;;;;;;;2.72;1.70;;;;;;;18.53;100.00;101910.06;5053691;28;20037;-50
2023/06/27 06:17:27;;;;;;;5.97;1.48;;;;;;;18.62;100.00;101900.78;5054048;28;20048;-55
2023/06/27 06:19:53;;;;;;;3.47;1.45;;;;;;;18.80;100.00;101958.53;5054139;28;20048;-50
2023/06/27 06:22:18;;;;;;;2.83;1.10;;;;;;;18.81;100.00;101930.06;5054934;28;20033;-54
2023/06/27 06:24:43;;;;;;;4.05;1.50;;;;;;;19.22;100.00;101976.91;5058591;28;20518;-52
2023/06/27 06:27:09;;;;;;;3.20;1.40;;;;;;;18.99;100.00;101921.16;5052080;28;20045;-53
2023/06/27 06:29:34;;;;;;;4.97;1.25;;;;;;;19.39;100.00;101994.75;5072270;28;20094;-52
2023/06/27 06:31:59;;;;;;;4.82;1.35;;;;;;;19.53;100.00;101984.22;5055771;28;20032;-50
2023/06/27 06:34:25;;;;;;;4.18;1.13;;;;;;;19.32;100.00;101931.91;5073323;28;20111;-50
2023/06/27 06:36:51;;;;;;;2.88;1.02;;;;;;;19.59;100.00;101938.50;5058370;28;20064;-50
2023/06/27 06:39:16;;;;;;;3.42;1.10;;;;;;;20.08;100.00;102009.78;5053461;28;20472;-51
2023/06/27 06:41:42;;;;;;;2.78;1.25;;;;;;;20.16;100.00;101979.97;5051572;28;20037;-50
2023/06/27 06:44:07;;;;;;;4.38;1.33;;;;;;;20.46;100.00;101981.00;5052293;28;20099;-55
2023/06/27 06:46:32;;;;;;;2.80;1.13;;;;;;;20.47;100.00;101961.34;5053142;28;20463;-54
2023/06/27 06:48:58;;;;;;;4.20;1.10;;;;;;;20.98;100.00;102023.56;5035044;28;20033;-53
2023/06/27 06:51:24;;;;;;;3.33;0.98;;;;;;;20.76;100.00;101960.56;5054106;28;20404;-52
2023/06/27 06:53:49;;;;;;;4.00;0.80;;;;;;;21.19;100.00;102031.25;5053633;28;20516;-49
2023/06/27 06:56:15;;;;;;;3.22;0.95;;;;;;;20.95;100.00;101959.50;5053281;28;20029;-51
2023/06/27 06:58:40;;;;;;;3.42;0.95;;;;;;;20.81;100.00;101954.91;5053579;28;20085;-53
2023/06/27 07:01:05;;;;;;;4.32;1.25;;;;;;;21.38;100.00;102027.50;5038684;28;20044;-49
2023/06/27 07:03:33;;;;;;;3.42;1.15;;;;;;;20.82;100.00;101950.44;5054201;28;20029;-51
2023/06/27 07:05:58;;;;;;;3.63;1.00;;;;;;;21.46;100.00;102018.06;5066077;28;20060;-49
2023/06/27 07:08:24;;;;;;;3.40;1.35;;;;;;;21.09;100.00;101987.22;5050945;28;20068;-53
2023/06/27 07:10:49;;;;;;;4.93;1.23;;;;;;;20.73;100.00;101966.06;5051140;28;20037;-51
2023/06/27 07:13:14;;;;;;;2.70;1.10;;;;;;;21.05;100.00;102033.81;5052158;28;20041;-48
2023/06/27 07:15:40;;;;;;;5.93;1.55;;;;;;;21.04;100.00;102031.25;5052547;28;20163;-55
2023/06/27 07:18:05;;;;;;;3.42;1.08;;;;;;;20.80;100.00;102038.84;5050944;28;20068;-49
2023/06/27 07:20:30;;;;;;;1.30;0.73;;;;;;;20.87;100.00;102028.66;5052817;28;20033;-49
2023/06/27 07:22:56;;;;;;;4.70;1.77;;;;;;;20.92;100.00;102018.56;5052681;28;20040;-54
2023/06/27 07:25:21;;;;;;;1.83;0.82;;;;;;;20.64;100.00;101971.94;5052436;28;20037;-50
2023/06/27 07:27:46;;;;;;;2.58;1.00;;;;;;;20.86;100.00;102021.59;5051648;28;20040;-51
2023/06/27 07:30:12;;;;;;;2.65;1.00;;;;;;;20.52;100.00;101969.13;5052462;28;20029;-53
2023/06/27 07:32:37;;;;;;;2.55;1.30;;;;;;;20.86;100.00;102038.50;5034952;28;20037;-50
2023/06/27 07:35:06;;;;;;;5.40;1.35;;;;;;;20.98;100.00;102042.31;5052521;28;20369;-50
2023/06/27 07:37:32;;;;;;;5.75;0.90;;;;;;;20.47;100.00;101963.13;5052241;28;20043;-55
2023/06/27 07:39:57;;;;;;;2.63;1.23;;;;;;;20.96;100.00;102041.50;5052274;28;20029;-54
2023/06/27 07:42:23;;;;;;;4.93;1.55;;;;;;;20.98;100.00;102039.63;5051743;28;20044;-52
2023/06/27 07:44:49;;;;;;;4.00;1.33;;;;;;;20.93;100.00;102022.97;5052307;28;20041;-55
2023/06/27 07:47:15;;;;;;;2.72;1.10;;;;;;;20.98;100.00;102027.13;5052130;28;20041;-55
2023/06/27 07:49:40;;;;;;;6.13;1.63;;;;;;;20.32;100.00;101963.97;5052141;28;20040;-50
2023/06/27 07:52:06;;;;;;;2.47;1.00;;;;;;;20.47;100.00;102006.81;5052384;28;20028;-53
2023/06/27 07:54:32;;;;;;;2.20;0.88;;;;;;;20.45;100.00;102035.44;5051851;28;20041;-52
2023/06/27 07:56:57;;;;;;;4.15;1.33;;;;;;;20.59;100.00;102037.34;5052006;28;20037;-49
2023/06/27 07:59:23;;;;;;;6.40;1.20;;;;;;;20.31;100.00;101994.38;5051818;28;20059;-52
2023/06/27 08:01:48;;;;;;;3.63;1.40;;;;;;;20.73;100.00;102032.97;5052333;28;20028;-53
2023/06/27 08:04:15;;;;;;;2.70;0.90;;;;;;;20.78;100.00;102041.59;5052168;28;20139;-53
2023/06/27 08:06:41;;;;;;;2.67;1.10;;;;;;;20.41;100.00;101967.03;5052508;28;20175;-57
2023/06/27 08:09:06;;;;;;;5.35;1.13;;;;;;;20.85;100.00;102031.41;5052169;28;20119;-56
2023/06/27 08:11:31;;;;;;;4.57;1.27;;;;;;;20.40;100.00;101977.81;5051830;28;20396;-52
2023/06/27 08:13:57;;;;;;;3.15;1.10;;;;;;;20.65;100.00;102024.50;5051754;28;20370;-52
2023/06/27 08:16:22;;;;;;;4.50;1.20;;;;;;;20.71;100.00;102024.19;5051388;28;20515;-52
2023/06/27 08:18:47;;;;;;;5.60;1.48;;;;;;;20.64;100.00;102009.41;5052166;28;20033;-56
2023/06/27 08:21:13;;;;;;;3.97;1.30;;;;;;;20.43;100.00;101988.34;5033846;28;20060;-55
2023/06/27 08:23:38;;;;;;;5.65;1.25;;;;;;;20.34;100.00;101964.78;5052052;28;20087;-50
2023/06/27 08:26:03;;;;;;;5.05;1.10;;;;;;;20.36;100.00;101970.91;5033924;28;20041;-53
2023/06/27 08:28:29;;;;;;;3.42;1.15;;;;;;;20.14;100.00;101972.03;5052417;28;20124;-49
2023/06/27 08:30:57;;;;;;;2.92;1.48;;;;;;;20.38;100.00;102038.53;5056060;28;20067;-53
2023/06/27 08:33:23;;;;;;;5.22;1.05;;;;;;;20.43;100.00;102044.50;5051778;28;20452;-50
2023/06/27 08:35:48;;;;;;;4.50;1.40;;;;;;;19.94;100.00;101964.22;5055819;28;20072;-50
2023/06/27 08:38:14;;;;;;;3.25;1.10;;;;;;;20.39;100.00;102043.81;5055547;28;20044;-51
2023/06/27 08:40:41;;;;;;;5.78;1.50;;;;;;;20.42;100.00;102046.31;5055714;28;20033;-50
2023/06/27 08:43:07;;;;;;;6.03;1.35;;;;;;;20.42;100.00;102032.94;5038086;28;20543;-53
2023/06/27 08:45:35;;;;;;;12.15;1.65;;;;;;;20.36;100.00;102016.34;5054464;28;20036;-54
2023/06/27 08:48:01;;;;;;;3.42;0.95;;;;;;;20.42;100.00;102032.06;5054213;28;20046;-54
2023/06/27 08:50:28;;;;;;;2.95;1.08;;;;;;;19.99;100.00;101964.00;5054776;28;20492;-49
2023/06/27 08:52:58;;;;;;;3.08;1.23;;;;;;;20.06;100.00;101952.88;5054333;28;20033;-50
2023/06/27 08:55:51;;;;;;;1.98;1.10;;;;;;;20.37;100.00;102021.63;5055091;28;20396;-51
2023/06/27 08:58:19;;;;;;;5.40;1.00;;;;;;;20.64;100.00;102038.81;5055160;28;20535;-52
2023/06/27 09:00:45;;;;;;;2.60;1.15;;;;;;;20.68;100.00;102048.44;5054024;28;20033;-54
2023/06/27 09:03:11;;;;;;;4.05;1.15;;;;;;;20.77;100.00;101982.81;5037541;28;20037;-48
2023/06/27 09:05:37;;;;;;;3.97;1.17;;;;;;;21.26;100.00;102043.34;5054357;28;20044;-48
2023/06/27 09:08:02;;;;;;;3.33;1.23;;;;;;;20.98;100.00;102051.19;5055332;28;20114;-51
2023/06/27 09:10:28;;;;;;;5.82;2.53;;;;;;;21.03;100.00;102024.16;5053994;28;20029;-53
2023/06/27 09:12:54;;;;;;;3.15;1.20;;;;;;;21.08;100.00;102038.16;5070734;28;20029;-48
2023/06/27 09:15:20;;;;;;;5.50;1.35;;;;;;;21.05;100.00;102046.34;5055137;28;20029;-48
2023/06/27 09:17:46;;;;;;;3.55;1.27;;;;;;;20.92;100.00;101995.34;5070328;28;20025;-47
2023/06/27 09:20:16;;;;;;;4.82;1.20;;;;;;;21.41;100.00;102060.34;5053119;28;20025;-50
2023/06/27 09:22:41;;;;;;;3.13;1.73;;;;;;;21.69;100.00;102059.56;5054828;28;20041;-54
2023/06/27 09:25:17;;;;;;;4.63;1.30;;;;;;;21.48;100.00;102056.31;5036993;28;20037;-50
2023/06/27 09:27:42;;;;;;;5.22;2.05;;;;;;;21.41;100.00;102000.53;5054389;28;20041;-54
2023/06/27 09:30:10;;;;;;;4.22;1.25;;;;;;;21.97;100.00;102045.41;5020749;28;20056;-54
2023/06/27 09:32:51;;;;;;;3.00;1.48;;;;;;;22.60;100.00;101979.69;5054495;28;20029;-54
2023/06/27 09:35:17;;;;;;;4.43;1.08;;;;;;;23.55;100.00;102050.41;5037039;28;20063;-54
2023/06/27 09:37:42;;;;;;;3.72;1.40;;;;;;;23.40;100.00;101984.25;5036952;28;20029;-51
2023/06/27 09:40:21;;;;;;;4.43;1.10;;;;;;;23.74;100.00;102064.31;5053945;28;20057;-48
2023/06/27 09:42:56;;;;;;;7.53;1.40;;;;;;;23.22;100.00;102052.59;5054233;28;20044;-50
2023/06/27 09:45:23;;;;;;;4.43;1.30;;;;;;;23.18;100.00;102064.50;5054501;28;20029;-53
2023/06/27 09:47:50;;;;;;;5.45;1.42;;;;;;;22.73;100.00;101998.56;5054677;28;20032;-48
2023/06/27 09:50:15;;;;;;;5.15;1.30;;;;;;;23.23;100.00;102057.03;5054753;28;20106;-48
2023/06/27 09:52:49;;;;;;;6.00;1.60;;;;;;;23.80;100.00;102074.66;5054196;28;20460;-49
2023/06/27 09:55:18;;;;;;;5.80;1.40;;;;;;;23.73;100.00;102006.13;5054381;28;20045;-48
2023/06/27 09:57:44;;;;;;;5.53;1.30;;;;;;;24.28;100.00;102069.56;5054086;28;20048;-50
2023/06/27 10:00:11;;;;;;;4.35;1.50;;;;;;;24.32;100.00;102071.91;5053277;28;20095;-52
2023/06/27 10:02:37;;;;;;;4.13;1.35;;;;;;;24.14;100.00;102073.19;5020068;28;20064;-52
2023/06/27 10:05:03;;;;;;;5.80;1.30;;;;;;;23.92;100.00;102029.91;5054214;28;20067;-51
2023/06/27 10:07:29;;;;;;;3.15;1.38;;;;;;;24.39;100.00;102034.69;5054294;28;20373;-52
2023/06/27 10:09:55;;;;;;;4.75;1.50;;;;;;;24.58;100.00;102070.94;5019742;28;20037;-56
2023/06/27 10:12:21;;;;;;;4.22;1.00;;;;;;;24.70;100.00;102079.09;5049131;28;20097;-54
2023/06/27 10:14:47;;;;;;;3.53;0.90;;;;;;;24.59;100.00;102032.28;5071839;28;20040;-48
2023/06/27 10:17:18;;;;;;;3.90;1.40;;;;;;;24.38;100.00;102006.91;5072593;28;20043;-49
2023/06/27 10:19:44;;;;;;;4.18;1.40;;;;;;;24.78;100.00;102026.41;5055989;28;20093;-50
2023/06/27 10:22:11;;;;;;;3.08;1.30;;;;;;;24.91;100.00;102016.50;5056230;28;20502;-51
2023/06/27 10:24:39;;;;;;;5.78;1.20;;;;;;;25.14;100.00;102021.03;5072671;28;20036;-52
2023/06/27 10:27:07;;;;;;;3.90;1.50;;;;;;;25.24;100.00;102060.75;5055518;28;20044;-51
2023/06/27 10:29:32;;;;;;;2.55;1.30;;;;;;;25.52;100.00;102071.22;5073765;28;20028;-49
2023/06/27 10:31:57;;;;;;;2.95;1.25;;;;;;;25.40;100.00;102028.97;5059386;28;20037;-53
2023/06/27 10:34:28;;;;;;;2.03;1.05;;;;;;;25.12;100.00;102060.72;5052231;28;20468;-51
2023/06/27 10:37:03;;;;;;;5.82;1.60;;;;;;;25.23;100.00;102032.94;5065887;28;20479;-50
2023/06/27 10:39:32;;;;;;;4.97;1.08;;;;;;;25.11;100.00;102037.41;5073389;28;20455;-51
2023/06/27 10:42:01;;;;;;;5.03;1.13;;;;;;;25.18;100.00;102094.41;5073152;28;20376;-51
2023/06/27 10:44:27;;;;;;;2.05;0.90;;;;;;;24.56;100.00;102075.56;5072119;28;20067;-53
2023/06/27 10:47:25;;;;;;;3.80;1.25;;;;;;;24.70;100.00;102082.66;5073291;28;20039;-51
2023/06/27 10:49:53;;;;;;;2.55;0.98;;;;;;;24.69;100.00;102018.16;5073241;28;20029;-53
2023/06/27 10:52:22;;;;;;;3.75;1.10;;;;;;;25.35;100.00;102085.06;5038582;28;20035;-50
2023/06/27 10:55:15;;;;;;;3.78;1.17;;;;;;;25.37;100.00;102067.81;5053894;28;20033;-51
2023/06/27 10:58:09;;;;;;;3.28;1.23;;;;;;;25.41;100.00;102017.22;5053124;28;20049;-49
2023/06/27 11:00:34;;;;;;;2.75;1.13;;;;;;;26.14;100.00;102072.69;5052990;28;20033;-52
2023/06/27 11:03:03;;;;;;;5.57;1.30;;;;;;;25.78;100.00;102085.41;5052046;28;20491;-51
2023/06/27 11:05:58;;;;;;;2.92;1.00;;;;;;;26.23;100.00;102090.84;5073182;28;20033;-49
2023/06/27 11:08:27;;;;;;;3.50;1.23;;;;;;;25.91;100.00;102095.16;5055570;28;20105;-52
2023/06/27 11:10:58;;;;;;;2.88;1.55;;;;;;;25.55;100.00;102090.72;5071176;28;20064;-48
2023/06/27 11:13:24;;;;;;;2.30;1.15;;;;;;;25.48;100.00;102096.72;5070845;28;20036;-49